createdAt,value
2019-01-25T00:04:38.618Z,41.55
2019-01-25T00:10:40.902Z,38.92
2019-01-25T00:16:43.175Z,39.88
2019-01-25T00:22:45.382Z,40.50
2019-01-25T00:28:47.729Z,40.23
2019-01-25T00:34:50.163Z,40.58
2019-01-25T00:40:52.410Z,41.42
2019-01-25T00:46:54.831Z,39.33
2019-01-25T00:52:57.215Z,40.55
2019-01-25T00:58:59.537Z,41.13
2019-01-25T01:05:01.848Z,37.38
2019-01-25T01:11:04.310Z,38.92
2019-01-25T01:17:06.410Z,36.33
2019-01-25T01:23:09.359Z,36.15
2019-01-25T01:29:11.621Z,37.65
2019-01-25T01:35:13.959Z,34.73
2019-01-25T01:41:18.242Z,36.25
2019-01-25T01:47:24.737Z,35.80
2019-01-25T01:53:28.379Z,36.85
2019-01-25T01:59:30.876Z,37.85
2019-01-25T02:05:33.055Z,37.58
2019-01-25T02:11:36.378Z,37.48
2019-01-25T02:17:38.510Z,37.38
2019-01-25T02:23:40.696Z,36.42
2019-01-25T02:29:42.979Z,36.98
2019-01-25T02:35:45.235Z,37.33
2019-01-25T02:41:49.256Z,37.33
2019-01-25T02:47:51.773Z,38.20
2019-01-25T02:53:55.284Z,36.13
2019-01-25T02:59:57.563Z,37.73
2019-01-25T03:05:59.941Z,35.33
2019-01-25T03:12:02.195Z,37.35
2019-01-25T03:18:04.575Z,36.38
2019-01-25T03:24:06.751Z,36.85
2019-01-25T03:30:10.753Z,36.35
2019-01-25T03:36:14.920Z,37.28
2019-01-25T03:42:18.994Z,36.90
2019-01-25T03:48:21.102Z,36.83
2019-01-25T03:54:25.341Z,36.42
2019-01-25T04:00:28.509Z,39.60
2019-01-25T04:06:30.874Z,38.30
2019-01-25T04:12:34.273Z,39.45
2019-01-25T04:18:36.455Z,40.78
2019-01-25T04:24:38.642Z,42.65
2019-01-25T04:30:41.074Z,40.88
2019-01-25T04:36:43.376Z,41.10
2019-01-25T04:42:47.365Z,41.80
2019-01-25T04:48:50.584Z,43.23
2019-01-25T04:54:53.005Z,40.63
2019-01-25T05:00:55.296Z,40.85
2019-01-25T05:06:58.063Z,41.10
2019-01-25T05:13:00.223Z,44.93
2019-01-25T05:19:02.339Z,45.85
2019-01-25T05:25:04.583Z,47.83
2019-01-25T05:31:07.140Z,48.50
2019-01-25T05:37:10.665Z,49.65
2019-01-25T05:43:12.995Z,53.45
2019-01-25T05:49:22.444Z,52.78
2019-01-25T05:55:24.639Z,52.65
2019-01-25T06:01:26.939Z,52.45
2019-01-25T06:07:29.185Z,49.60
2019-01-25T06:13:31.495Z,53.63
2019-01-25T06:19:37.229Z,54.70
2019-01-25T06:25:40.398Z,50.85
2019-01-25T06:31:42.755Z,53.20
2019-01-25T06:37:46.007Z,49.03
2019-01-25T06:43:48.366Z,52.40
2019-01-25T06:49:54.289Z,49.45
2019-01-25T06:55:56.747Z,49.13
2019-01-25T07:02:02.799Z,48.85
2019-01-25T07:08:04.955Z,49.77
2019-01-25T07:14:08.361Z,51.63
2019-01-25T07:20:11.742Z,51.48
2019-01-25T07:26:14.056Z,51.28
2019-01-25T07:32:16.427Z,50.55
2019-01-25T07:38:18.940Z,52.23
2019-01-25T07:44:21.276Z,52.03
2019-01-25T07:50:25.669Z,50.83
2019-01-25T07:56:28.077Z,53.48
2019-01-25T08:02:30.218Z,53.60
2019-01-25T08:08:32.664Z,54.75
2019-01-25T08:14:34.968Z,55.48
2019-01-25T08:20:37.118Z,55.10
2019-01-25T08:26:39.549Z,57.10
2019-01-25T08:32:41.794Z,52.85
2019-01-25T08:38:44.155Z,56.68
2019-01-25T08:44:46.680Z,55.78
2019-01-25T08:50:48.874Z,56.55
2019-01-25T08:56:53.209Z,54.08
2019-01-25T09:02:55.422Z,56.08
2019-01-25T09:08:57.913Z,54.18
2019-01-25T09:15:00.283Z,58.13
2019-01-25T09:21:02.609Z,55.83
2019-01-25T09:27:04.884Z,56.45
2019-01-25T09:33:07.052Z,58.45
2019-01-25T09:39:28.603Z,55.83
2019-01-25T09:45:30.831Z,53.30
2019-01-25T09:51:34.206Z,52.17
2019-01-25T09:57:38.519Z,52.17
2019-01-25T10:03:40.798Z,49.63
2019-01-25T10:09:43.759Z,49.15
2019-01-25T10:15:45.983Z,49.83
2019-01-25T10:21:48.155Z,52.60
2019-01-25T10:27:50.350Z,52.25
2019-01-25T10:33:52.693Z,50.15
2019-01-25T10:39:54.911Z,50.03
2019-01-25T10:45:57.210Z,51.18
2019-01-25T10:51:59.346Z,50.23
2019-01-25T10:58:03.191Z,48.45
2019-01-25T11:04:11.632Z,46.60
2019-01-25T11:10:11.687Z,43.98
2019-01-25T11:16:14.020Z,47.25
2019-01-25T11:22:17.323Z,47.35
2019-01-25T11:28:20.449Z,45.67
2019-01-25T11:34:22.610Z,45.15
2019-01-25T11:40:27.127Z,47.23
2019-01-25T11:46:29.526Z,46.37
2019-01-25T11:52:31.743Z,46.48
2019-01-25T11:58:33.895Z,46.68
2019-01-25T12:04:38.537Z,41.63
2019-01-25T12:10:40.795Z,44.15
2019-01-25T12:16:43.090Z,44.60
2019-01-25T12:22:45.210Z,44.58
2019-01-25T12:28:48.996Z,41.60
2019-01-25T12:34:52.335Z,38.00
2019-01-25T12:40:54.492Z,36.68
2019-01-25T12:46:56.727Z,36.20
2019-01-25T12:53:00.134Z,37.55
2019-01-25T12:59:02.367Z,39.03
2019-01-25T13:05:08.094Z,38.15
2019-01-25T13:11:29.641Z,40.95
2019-01-25T13:17:31.755Z,39.27
2019-01-25T13:23:34.171Z,39.63
2019-01-25T13:29:36.525Z,39.18
2019-01-25T13:35:38.675Z,39.27
2019-01-25T13:41:40.959Z,38.58
2019-01-25T13:47:43.363Z,37.88
2019-01-25T13:53:46.743Z,37.83
2019-01-25T13:59:49.828Z,37.13
2019-01-25T14:05:54.111Z,37.67
2019-01-25T14:11:56.793Z,38.33
2019-01-25T14:17:59.054Z,39.55
2019-01-25T14:24:01.491Z,39.40
2019-01-25T14:30:09.842Z,41.25
2019-01-25T14:36:11.961Z,41.65
2019-01-25T14:42:14.475Z,41.63
2019-01-25T14:48:16.818Z,39.50
2019-01-25T14:54:19.086Z,39.00
2019-01-25T15:00:21.264Z,41.28
2019-01-25T15:06:26.643Z,40.55
2019-01-25T15:12:30.934Z,39.10
2019-01-25T15:18:33.214Z,36.80
2019-01-25T15:24:35.662Z,40.95
2019-01-25T15:30:39.251Z,41.23
2019-01-25T15:36:41.519Z,39.05
2019-01-25T15:42:44.128Z,39.27
2019-01-25T15:48:46.806Z,38.67
2019-01-25T15:54:49.029Z,40.30
2019-01-25T16:00:51.231Z,39.85
2019-01-25T16:06:56.030Z,41.25
2019-01-25T16:12:58.379Z,42.38
2019-01-25T16:19:00.611Z,38.42
2019-01-25T16:25:03.914Z,38.98
2019-01-25T16:31:07.417Z,41.10
2019-01-25T16:37:09.530Z,41.25
2019-01-25T16:43:11.690Z,43.35
2019-01-25T16:49:14.978Z,42.17
2019-01-25T16:55:17.278Z,42.80
2019-01-25T17:01:19.494Z,40.25
2019-01-25T17:07:23.658Z,41.18
2019-01-25T17:13:25.958Z,40.70
2019-01-25T17:19:28.282Z,38.23
2019-01-25T17:25:30.555Z,38.55
2019-01-25T17:31:33.785Z,37.70
2019-01-25T17:37:36.004Z,35.40
2019-01-25T17:43:38.271Z,34.18
2019-01-25T17:49:41.732Z,33.67
2019-01-25T17:55:44.035Z,36.98
2019-01-25T18:01:48.262Z,33.92
2019-01-25T18:07:50.700Z,39.08
2019-01-25T18:13:52.980Z,32.28
2019-01-25T18:19:55.336Z,27.40
2019-01-25T18:26:11.457Z,29.63
2019-01-25T18:32:13.752Z,30.70
2019-01-25T18:38:16.052Z,31.97
2019-01-25T18:44:18.424Z,32.25
2019-01-25T18:50:20.835Z,31.17
2019-01-25T18:56:24.527Z,30.17
2019-01-25T19:02:26.850Z,31.25
2019-01-25T19:08:29.265Z,30.82
2019-01-25T19:14:31.403Z,36.48
2019-01-25T19:20:34.069Z,36.42
2019-01-25T19:26:36.165Z,33.40
2019-01-25T19:32:38.306Z,35.52
2019-01-25T19:38:40.546Z,33.45
2019-01-25T19:44:43.101Z,34.38
2019-01-25T19:50:45.474Z,33.02
2019-01-25T19:56:48.617Z,33.90
2019-01-25T20:02:50.855Z,33.98
2019-01-25T20:08:53.063Z,32.90
2019-01-25T20:14:55.307Z,32.45
2019-01-25T20:20:57.504Z,31.65
2019-01-25T20:26:59.719Z,31.30
2019-01-25T20:33:02.298Z,29.35
2019-01-25T20:39:06.688Z,33.10
2019-01-25T20:45:12.309Z,30.82
2019-01-25T20:51:15.679Z,30.05
2019-01-25T20:57:18.522Z,31.17
2019-01-25T21:03:20.787Z,31.30
2019-01-25T21:09:23.191Z,29.07
2019-01-25T21:15:25.860Z,28.75
2019-01-25T21:21:28.288Z,31.90
2019-01-25T21:27:30.554Z,33.38
2019-01-25T21:33:32.730Z,33.10
2019-01-25T21:39:35.724Z,29.60
2019-01-25T21:45:43.234Z,28.35
2019-01-25T21:51:42.882Z,29.25
2019-01-25T21:57:44.968Z,31.15
2019-01-25T22:03:47.283Z,28.25
2019-01-25T22:09:49.605Z,30.85
2019-01-25T22:15:52.014Z,30.05
2019-01-25T22:21:54.387Z,27.75
2019-01-25T22:27:57.686Z,31.00
2019-01-25T22:33:59.994Z,32.10
2019-01-25T22:40:04.143Z,30.35
2019-01-25T22:46:06.446Z,31.42
2019-01-25T22:52:09.378Z,31.45
2019-01-25T22:58:11.643Z,31.93
2019-01-25T23:04:39.981Z,33.55
2019-01-25T23:10:42.116Z,33.58
2019-01-25T23:16:44.600Z,31.27
2019-01-25T23:22:47.006Z,32.42
2019-01-25T23:28:51.478Z,30.82
2019-01-25T23:34:53.627Z,29.82
2019-01-25T23:40:55.898Z,30.68
2019-01-25T23:46:58.052Z,31.02
2019-01-25T23:53:00.381Z,30.77
2019-01-25T23:59:02.618Z,31.70
